Time;durP1;ratioP1;P1;durP2;ratioP2;P2;SDS_P1;SDS_P2;PMS_P1;PMS_P2;Temp;Humidity;BMP_temperature;BMP_pressure;BME280_temperature;BME280_humidity;BME280_pressure;Samples;Min_cycle;Max_cycle;Signal;HPM_P1;HPM_P2
2021/08/20 00:02:00;;;;;;;3.20;2.90;;;17.00;99.90;;;;;;5083820;28;20618;-78
2021/08/20 00:04:28;;;;;;;2.90;2.70;;;17.00;99.90;;;;;;5078409;28;20627;-78
2021/08/20 00:06:55;;;;;;;2.60;2.40;;;17.10;99.90;;;;;;5077821;28;20676;-78
2021/08/20 00:09:23;;;;;;;4.90;2.40;;;17.10;99.90;;;;;;5090166;28;21212;-78
2021/08/20 00:11:49;;;;;;;2.10;1.93;;;17.10;99.90;;;;;;5082622;28;20620;-78
2021/08/20 00:14:16;;;;;;;3.40;2.60;;;17.10;99.90;;;;;;5072238;28;20631;-78
2021/08/20 00:16:44;;;;;;;3.87;2.30;;;17.20;99.90;;;;;;5089928;28;20733;-78
2021/08/20 00:19:11;;;;;;;3.90;3.13;;;17.20;99.90;;;;;;5087824;28;20666;-78
2021/08/20 00:21:40;;;;;;;6.33;3.00;;;17.20;99.90;;;;;;5086113;28;20637;-78
2021/08/20 00:24:07;;;;;;;3.50;2.80;;;17.20;99.90;;;;;;5085153;28;20624;-78
2021/08/20 00:26:35;;;;;;;3.00;2.80;;;17.10;99.90;;;;;;5062721;28;20684;-78
2021/08/20 00:29:02;;;;;;;3.30;3.00;;;17.10;99.90;;;;;;5073003;28;20757;-78
2021/08/20 00:31:30;;;;;;;2.90;2.53;;;17.00;99.90;;;;;;5087007;28;20684;-78
2021/08/20 00:33:57;;;;;;;2.50;2.30;;;17.00;99.90;;;;;;5071317;28;20623;-78
2021/08/20 00:36:24;;;;;;;2.07;1.80;;;17.00;99.90;;;;;;5069879;28;20618;-78
2021/08/20 00:38:52;;;;;;;4.90;3.03;;;17.00;99.90;;;;;;5069818;28;20660;-78
2021/08/20 00:41:19;;;;;;;3.67;2.40;;;17.00;99.90;;;;;;5069484;28;20631;-78
2021/08/20 00:43:47;;;;;;;2.23;2.03;;;17.10;99.90;;;;;;5069485;28;20663;-78
2021/08/20 00:46:14;;;;;;;4.60;3.20;;;17.10;99.90;;;;;;5069400;28;20673;-78
2021/08/20 00:48:41;;;;;;;2.53;2.13;;;17.10;99.90;;;;;;5073905;28;20657;-78
2021/08/20 00:51:12;;;;;;;3.00;2.77;;;17.10;99.90;;;;;;5072627;28;20650;-78
2021/08/20 00:53:39;;;;;;;3.17;2.30;;;17.00;99.90;;;;;;5073290;28;20658;-78
2021/08/20 00:56:08;;;;;;;3.70;3.20;;;17.00;99.90;;;;;;5073136;28;20671;-78
2021/08/20 00:58:36;;;;;;;2.90;2.50;;;17.00;99.90;;;;;;5072985;28;20702;-78
2021/08/20 01:01:04;;;;;;;2.80;2.57;;;17.00;99.90;;;;;;5073086;28;20723;-78
2021/08/20 01:03:33;;;;;;;3.63;2.87;;;17.10;99.90;;;;;;5071973;28;20634;-78
2021/08/20 01:06:01;;;;;;;2.40;2.20;;;17.00;99.90;;;;;;5072583;28;20636;-78
2021/08/20 01:08:31;;;;;;;4.10;2.80;;;17.00;99.90;;;;;;5072896;28;21250;-78
2021/08/20 01:11:01;;;;;;;3.20;2.67;;;17.00;99.90;;;;;;5072088;28;20646;-78
2021/08/20 01:13:33;;;;;;;2.70;2.50;;;16.90;99.90;;;;;;5077447;28;20623;-78
2021/08/20 01:16:04;;;;;;;2.13;2.03;;;16.80;99.90;;;;;;5076592;28;20738;-78
2021/08/20 01:18:35;;;;;;;4.80;3.20;;;16.70;99.90;;;;;;5083816;28;21138;-78
2021/08/20 01:21:05;;;;;;;3.13;2.83;;;16.80;99.90;;;;;;5088156;28;20623;-78
2021/08/20 01:23:34;;;;;;;2.33;2.13;;;16.90;99.90;;;;;;5085136;28;21126;-78
2021/08/20 01:26:04;;;;;;;2.83;2.63;;;16.90;99.90;;;;;;5081619;28;20632;-78
2021/08/20 01:28:32;;;;;;;3.10;2.80;;;16.90;99.90;;;;;;5074242;28;20669;-78
2021/08/20 01:31:01;;;;;;;3.20;2.80;;;16.90;99.90;;;;;;5093133;28;20622;-78
2021/08/20 01:33:30;;;;;;;3.73;2.70;;;16.80;99.90;;;;;;5090204;28;20630;-78
2021/08/20 01:35:59;;;;;;;2.57;2.37;;;16.70;99.90;;;;;;5069594;28;21184;-78
2021/08/20 01:38:27;;;;;;;2.53;2.33;;;16.80;99.90;;;;;;5090826;28;20653;-78
2021/08/20 01:40:56;;;;;;;3.30;2.47;;;16.90;99.90;;;;;;5089241;28;20646;-78
2021/08/20 01:43:25;;;;;;;2.87;2.67;;;16.90;99.90;;;;;;5085002;28;20626;-78
2021/08/20 01:45:53;;;;;;;3.23;2.93;;;16.80;99.90;;;;;;5074900;28;20731;-78
2021/08/20 01:48:20;;;;;;;3.10;2.90;;;16.70;99.90;;;;;;5083629;28;20653;-78
2021/08/20 01:50:48;;;;;;;2.70;2.47;;;16.80;99.90;;;;;;5089273;28;20634;-78
2021/08/20 01:53:17;;;;;;;2.33;2.13;;;16.90;99.90;;;;;;5082304;28;20632;-78
2021/08/20 01:55:49;;;;;;;4.57;2.40;;;16.90;99.90;;;;;;5105086;28;20661;-78
2021/08/20 01:58:16;;;;;;;2.47;2.27;;;16.80;99.90;;;;;;5080961;28;21217;-78
2021/08/20 02:00:46;;;;;;;3.40;2.50;;;16.70;99.90;;;;;;5077131;28;21112;-78
2021/08/20 02:03:13;;;;;;;2.77;2.40;;;16.80;99.90;;;;;;5091778;28;20669;-78
2021/08/20 02:05:41;;;;;;;5.17;2.10;;;16.90;99.90;;;;;;5090377;28;20686;-78
2021/08/20 02:08:09;;;;;;;2.80;2.60;;;16.80;99.90;;;;;;5092727;28;20677;-78
2021/08/20 02:10:38;;;;;;;2.33;2.13;;;16.70;99.90;;;;;;5077929;28;21008;-78
2021/08/20 02:13:06;;;;;;;2.90;2.10;;;16.80;99.90;;;;;;5085131;28;20620;-78
2021/08/20 02:15:37;;;;;;;3.03;2.30;;;16.80;99.90;;;;;;5084776;28;20734;-78
2021/08/20 02:18:06;;;;;;;2.30;2.10;;;16.80;99.90;;;;;;5072021;28;20635;-78
2021/08/20 02:20:33;;;;;;;5.33;2.30;;;16.80;99.90;;;;;;5073079;28;20964;-78
2021/08/20 02:23:01;;;;;;;3.37;2.20;;;16.70;99.90;;;;;;5075275;28;20634;-78
2021/08/20 02:25:29;;;;;;;2.70;2.50;;;16.80;99.90;;;;;;5084312;28;20733;-78
2021/08/20 02:27:57;;;;;;;3.10;2.50;;;16.80;99.90;;;;;;5086402;28;20625;-78
2021/08/20 02:30:26;;;;;;;2.73;2.33;;;16.90;99.90;;;;;;5090679;28;20733;-78
2021/08/20 02:32:55;;;;;;;3.27;3.00;;;16.80;99.90;;;;;;5086510;28;20639;-78
2021/08/20 02:35:25;;;;;;;2.67;2.47;;;16.70;99.90;;;;;;5092125;28;21059;-78
2021/08/20 02:38:00;;;;;;;3.37;2.60;;;16.80;99.90;;;;;;5076356;28;20733;-78
2021/08/20 02:40:30;;;;;;;2.60;2.30;;;16.80;99.90;;;;;;5087782;28;20634;-78
2021/08/20 02:43:00;;;;;;;2.03;1.93;;;16.80;99.90;;;;;;5077606;28;20667;-78
2021/08/20 02:45:30;;;;;;;2.73;2.53;;;16.70;99.90;;;;;;5081430;28;20659;-78
2021/08/20 02:47:58;;;;;;;2.20;2.10;;;16.70;99.90;;;;;;5066101;28;20624;-78
2021/08/20 02:50:27;;;;;;;2.67;2.40;;;16.70;99.90;;;;;;5088516;28;21260;-78
2021/08/20 02:52:53;;;;;;;2.33;2.10;;;16.70;99.90;;;;;;5091070;28;20630;-78
2021/08/20 02:55:21;;;;;;;3.10;2.10;;;16.70;99.90;;;;;;5080264;28;20611;-78
2021/08/20 02:57:48;;;;;;;3.53;3.23;;;16.80;99.90;;;;;;5086412;28;20673;-78
2021/08/20 03:00:16;;;;;;;3.40;2.83;;;16.80;99.90;;;;;;5071361;28;20610;-78
2021/08/20 03:02:43;;;;;;;6.23;3.10;;;16.70;99.90;;;;;;5089917;28;20658;-78
2021/08/20 03:05:11;;;;;;;2.53;2.33;;;16.70;99.90;;;;;;5080000;28;20621;-78
2021/08/20 03:07:41;;;;;;;5.83;2.40;;;16.70;99.90;;;;;;5070726;28;20667;-78
2021/08/20 03:10:09;;;;;;;2.47;2.10;;;16.70;99.90;;;;;;5083867;28;20667;-78
2021/08/20 03:12:36;;;;;;;3.40;2.30;;;16.60;99.90;;;;;;5078584;28;21182;-78
2021/08/20 03:15:03;;;;;;;3.20;2.70;;;16.60;99.90;;;;;;5088152;28;21006;-78
2021/08/20 03:17:30;;;;;;;3.27;2.30;;;16.60;99.90;;;;;;5070830;28;20675;-78
2021/08/20 03:19:57;;;;;;;2.73;2.53;;;16.70;99.90;;;;;;5089801;28;20682;-78
2021/08/20 03:22:23;;;;;;;2.40;2.20;;;16.70;99.90;;;;;;5085779;28;20619;-78
2021/08/20 03:24:52;;;;;;;4.23;2.47;;;16.70;99.90;;;;;;5073490;28;20613;-78
2021/08/20 03:27:19;;;;;;;2.40;2.20;;;16.70;99.90;;;;;;5072233;28;20973;-78
2021/08/20 03:29:46;;;;;;;2.47;2.27;;;16.70;99.90;;;;;;5080988;28;20646;-78
2021/08/20 03:32:13;;;;;;;2.53;2.33;;;16.70;99.90;;;;;;5087456;28;20959;-78
2021/08/20 03:34:39;;;;;;;3.30;2.40;;;16.70;99.90;;;;;;5079167;28;20607;-78
2021/08/20 03:37:06;;;;;;;3.07;2.17;;;16.70;99.90;;;;;;5085346;28;20690;-78
2021/08/20 03:39:33;;;;;;;2.37;2.17;;;16.60;99.90;;;;;;5077628;28;20619;-78
2021/08/20 03:42:01;;;;;;;2.20;2.00;;;16.70;99.90;;;;;;5088091;28;20681;-78
2021/08/20 03:44:28;;;;;;;4.70;2.47;;;16.60;99.90;;;;;;5084002;28;20616;-78
2021/08/20 03:46:55;;;;;;;2.50;2.23;;;16.60;99.90;;;;;;5088426;28;20612;-78
2021/08/20 03:49:22;;;;;;;2.30;1.87;;;16.70;99.90;;;;;;5078168;28;20667;-78
2021/08/20 03:51:49;;;;;;;3.00;2.80;;;16.70;99.90;;;;;;5071726;28;20968;-78
2021/08/20 03:54:17;;;;;;;3.27;2.97;;;16.80;99.90;;;;;;5090284;28;20614;-78
2021/08/20 03:56:44;;;;;;;5.87;4.20;;;16.80;99.90;;;;;;5087894;28;21091;-78
2021/08/20 03:59:12;;;;;;;2.17;1.97;;;16.80;99.90;;;;;;5070418;28;20660;-78
2021/08/20 04:01:39;;;;;;;2.67;2.47;;;16.80;99.90;;;;;;5085779;28;20618;-78
2021/08/20 04:04:06;;;;;;;4.10;2.67;;;16.80;99.90;;;;;;5089893;28;20671;-78
2021/08/20 04:06:33;;;;;;;2.93;2.67;;;16.80;99.90;;;;;;5088256;28;20718;-78
2021/08/20 04:08:59;;;;;;;3.90;3.60;;;16.80;99.90;;;;;;5089267;28;20694;-78
2021/08/20 04:11:26;;;;;;;3.20;2.90;;;16.70;99.90;;;;;;5075774;28;20679;-78
2021/08/20 04:13:54;;;;;;;2.60;2.40;;;16.80;99.90;;;;;;5073235;28;20613;-78
2021/08/20 04:16:22;;;;;;;2.73;2.53;;;16.70;99.90;;;;;;5089353;28;20656;-78
2021/08/20 04:18:49;;;;;;;3.93;2.93;;;16.70;99.90;;;;;;5069580;28;20638;-78
2021/08/20 04:21:16;;;;;;;3.00;2.63;;;16.70;99.90;;;;;;5069186;28;20676;-78
2021/08/20 04:23:43;;;;;;;2.57;1.90;;;16.60;99.90;;;;;;5087560;28;20724;-78
2021/08/20 04:26:09;;;;;;;4.20;2.43;;;16.60;99.90;;;;;;5077472;28;20611;-78
2021/08/20 04:28:36;;;;;;;2.87;2.67;;;16.60;99.90;;;;;;5064074;28;20680;-78
2021/08/20 04:31:03;;;;;;;4.37;3.27;;;16.60;99.90;;;;;;5088417;28;20768;-78
2021/08/20 04:33:31;;;;;;;2.77;2.27;;;16.60;99.90;;;;;;5075513;28;21021;-78
2021/08/20 04:35:58;;;;;;;2.83;2.50;;;16.60;99.90;;;;;;5085154;28;20628;-78
2021/08/20 04:38:25;;;;;;;3.77;2.33;;;16.60;99.90;;;;;;5068721;28;20657;-78
2021/08/20 04:40:52;;;;;;;4.43;2.80;;;16.50;99.90;;;;;;5071236;28;20683;-78
2021/08/20 04:43:19;;;;;;;4.67;3.60;;;16.50;99.90;;;;;;5071497;28;20660;-78
2021/08/20 04:45:46;;;;;;;3.83;2.90;;;16.60;99.90;;;;;;5085349;28;20714;-78
2021/08/20 04:48:13;;;;;;;4.10;3.03;;;16.60;99.90;;;;;;5069553;28;20622;-78
2021/08/20 04:50:41;;;;;;;3.17;2.80;;;16.60;99.90;;;;;;5067614;28;20697;-78
2021/08/20 04:53:08;;;;;;;2.43;2.23;;;16.70;99.90;;;;;;5069017;28;20761;-78
2021/08/20 04:55:35;;;;;;;2.73;2.37;;;16.80;99.90;;;;;;5078651;28;20613;-78
2021/08/20 04:58:02;;;;;;;4.07;3.33;;;16.70;99.90;;;;;;5096744;28;20678;-78
2021/08/20 05:00:29;;;;;;;2.90;2.70;;;16.70;99.90;;;;;;5086984;28;20655;-78
2021/08/20 05:02:56;;;;;;;2.97;2.77;;;16.70;99.90;;;;;;5069933;28;20691;-78
2021/08/20 05:05:24;;;;;;;6.00;3.10;;;16.70;99.90;;;;;;5075075;28;20631;-78
2021/08/20 05:07:52;;;;;;;4.33;3.30;;;16.70;99.90;;;;;;5080892;28;20625;-78
2021/08/20 05:10:19;;;;;;;2.80;2.60;;;16.80;99.90;;;;;;5069487;28;20637;-78
2021/08/20 05:12:46;;;;;;;3.33;3.03;;;16.80;99.90;;;;;;5083661;28;20707;-78
2021/08/20 05:15:13;;;;;;;4.60;2.73;;;16.80;99.90;;;;;;5089912;28;20641;-78
2021/08/20 05:17:40;;;;;;;3.43;2.97;;;16.80;99.90;;;;;;5089740;28;20614;-78
2021/08/20 05:20:08;;;;;;;5.30;2.57;;;16.80;99.90;;;;;;5089851;28;20655;-78
2021/08/20 05:22:48;;;;;;;3.30;3.00;;;16.80;99.90;;;;;;5089490;28;21446;-78
2021/08/20 05:25:16;;;;;;;5.20;2.60;;;16.90;99.90;;;;;;5086456;28;21228;-78
2021/08/20 05:27:44;;;;;;;6.50;3.57;;;16.90;99.90;;;;;;5074705;28;21020;-78
2021/08/20 05:30:12;;;;;;;4.87;3.43;;;16.90;99.90;;;;;;5081261;28;20700;-78
2021/08/20 05:32:39;;;;;;;8.10;4.03;;;16.90;99.90;;;;;;5082355;28;20627;-78
2021/08/20 05:35:08;;;;;;;8.17;5.00;;;17.00;99.90;;;;;;5089757;28;20658;-78
2021/08/20 05:37:35;;;;;;;5.70;4.23;;;17.00;99.90;;;;;;5093010;28;20611;-78
2021/08/20 05:40:02;;;;;;;7.37;4.47;;;17.00;99.90;;;;;;5091983;28;20643;-78
2021/08/20 05:42:30;;;;;;;6.13;3.93;;;17.10;99.90;;;;;;5090545;28;20650;-78
2021/08/20 05:44:57;;;;;;;6.13;5.50;;;17.10;99.90;;;;;;5082453;28;20702;-78
2021/08/20 05:47:24;;;;;;;7.03;4.20;;;17.20;99.90;;;;;;5075956;28;20703;-78
2021/08/20 05:49:52;;;;;;;5.33;3.40;;;17.20;99.90;;;;;;5072077;28;20645;-78
2021/08/20 05:52:19;;;;;;;4.57;3.50;;;17.30;99.90;;;;;;5069827;28;20646;-78
2021/08/20 05:54:46;;;;;;;4.27;3.07;;;17.30;99.90;;;;;;5080884;28;20680;-78
2021/08/20 05:57:13;;;;;;;5.80;3.37;;;17.30;99.90;;;;;;5088755;28;20623;-78
2021/08/20 05:59:41;;;;;;;5.50;3.03;;;17.40;99.90;;;;;;5071201;28;20632;-78
2021/08/20 06:02:08;;;;;;;4.17;2.70;;;17.40;99.90;;;;;;5074013;28;20638;-78
2021/08/20 06:04:36;;;;;;;8.00;2.80;;;17.50;99.90;;;;;;5076075;28;20632;-78
2021/08/20 06:07:03;;;;;;;6.80;3.20;;;17.50;99.90;;;;;;5085083;28;20712;-78
2021/08/20 06:09:29;;;;;;;3.50;3.27;;;17.60;99.90;;;;;;5081120;28;20631;-78
2021/08/20 06:11:56;;;;;;;3.90;3.00;;;17.70;99.90;;;;;;5091949;28;20612;-78
2021/08/20 06:14:23;;;;;;;3.50;3.20;;;17.60;99.90;;;;;;5079452;28;20618;-78
2021/08/20 06:16:54;;;;;;;8.83;2.63;;;17.70;99.90;;;;;;5072952;28;20681;-78
2021/08/20 06:19:22;;;;;;;3.80;3.00;;;17.70;99.90;;;;;;5091384;28;20655;-78
2021/08/20 06:21:49;;;;;;;4.70;3.10;;;17.80;99.90;;;;;;5090601;28;21171;-78
2021/08/20 06:24:16;;;;;;;3.13;2.80;;;17.80;99.90;;;;;;5072063;28;20631;-78
2021/08/20 06:26:45;;;;;;;3.10;2.90;;;17.90;99.90;;;;;;5090127;28;20616;-78
2021/08/20 06:29:13;;;;;;;3.23;2.80;;;17.90;99.90;;;;;;5091868;28;20628;-78
2021/08/20 06:31:40;;;;;;;4.20;2.83;;;17.90;99.90;;;;;;5091582;28;20760;-78
2021/08/20 06:34:08;;;;;;;4.17;3.40;;;17.90;99.90;;;;;;5089111;28;20613;-78
2021/08/20 06:36:35;;;;;;;8.50;3.10;;;17.90;99.90;;;;;;5086645;28;20686;-77
2021/08/20 06:39:03;;;;;;;3.53;3.23;;;18.00;99.90;;;;;;5087138;28;20628;-78
2021/08/20 06:41:30;;;;;;;4.93;3.20;;;18.00;99.90;;;;;;5080785;28;20613;-78
2021/08/20 06:43:57;;;;;;;6.10;3.00;;;18.00;99.90;;;;;;5071874;28;20609;-78
2021/08/20 06:46:24;;;;;;;4.67;3.77;;;18.00;99.90;;;;;;5080522;28;20620;-78
2021/08/20 06:48:51;;;;;;;4.37;3.97;;;18.10;99.90;;;;;;5091782;28;20621;-77
2021/08/20 06:51:19;;;;;;;3.70;3.23;;;18.00;99.90;;;;;;5091114;28;20738;-77
2021/08/20 06:53:46;;;;;;;4.60;3.23;;;18.00;99.90;;;;;;5090813;28;20596;-77
2021/08/20 06:56:13;;;;;;;4.10;3.63;;;18.10;99.90;;;;;;5090519;28;20620;-77
2021/08/20 06:58:40;;;;;;;3.73;3.33;;;18.10;99.90;;;;;;5091500;28;20601;-77
2021/08/20 07:01:07;;;;;;;4.43;3.90;;;18.20;99.90;;;;;;5090512;28;20615;-77
2021/08/20 07:03:34;;;;;;;5.47;4.03;;;18.30;99.90;;;;;;5091132;28;21229;-77
2021/08/20 07:06:01;;;;;;;4.70;4.30;;;18.40;99.90;;;;;;5091374;28;21145;-77
2021/08/20 07:08:29;;;;;;;4.63;4.13;;;18.50;99.90;;;;;;5091516;28;20613;-77
2021/08/20 07:10:56;;;;;;;5.10;4.60;;;18.60;99.90;;;;;;5090861;28;20687;-78
2021/08/20 07:13:23;;;;;;;5.07;3.90;;;18.50;99.90;;;;;;5090610;28;20642;-77
2021/08/20 07:15:50;;;;;;;7.80;4.50;;;18.50;99.90;;;;;;5089711;28;21569;-77
2021/08/20 07:18:17;;;;;;;5.17;4.50;;;18.40;99.90;;;;;;5089189;28;20627;-78
2021/08/20 07:20:44;;;;;;;8.93;4.97;;;18.40;99.90;;;;;;5090248;28;20600;-78
2021/08/20 07:23:11;;;;;;;5.30;4.90;;;18.50;99.90;;;;;;5088487;28;20937;-77
2021/08/20 07:25:39;;;;;;;6.37;5.37;;;18.60;99.90;;;;;;5081814;28;20620;-77
2021/08/20 07:28:06;;;;;;;5.90;5.40;;;18.80;99.90;;;;;;5070234;28;21032;-77
2021/08/20 07:30:33;;;;;;;8.47;5.50;;;19.00;99.90;;;;;;5070790;28;20664;-77
2021/08/20 07:33:00;;;;;;;7.23;5.93;;;19.20;99.90;;;;;;5075905;28;20620;-78
2021/08/20 07:35:27;;;;;;;7.70;6.87;;;19.20;99.90;;;;;;5090983;28;20609;-77
2021/08/20 07:37:53;;;;;;;5.90;4.83;;;19.20;99.90;;;;;;5090749;28;20749;-77
2021/08/20 07:40:20;;;;;;;7.33;4.90;;;19.20;99.90;;;;;;5090730;28;20621;-77
2021/08/20 07:42:49;;;;;;;5.93;4.70;;;19.30;99.90;;;;;;5089483;28;20597;-77
2021/08/20 07:45:16;;;;;;;5.83;5.23;;;19.40;99.90;;;;;;5090647;28;20609;-77
2021/08/20 07:47:47;;;;;;;5.30;4.80;;;19.50;99.90;;;;;;5081923;28;20702;-77
2021/08/20 07:50:15;;;;;;;7.60;4.80;;;19.60;99.90;;;;;;5079550;28;20641;-77
2021/08/20 07:52:42;;;;;;;6.10;5.13;;;19.60;99.90;;;;;;5066174;28;20622;-77
2021/08/20 07:55:09;;;;;;;6.80;5.03;;;19.70;99.90;;;;;;5085423;28;20674;-77
2021/08/20 07:57:51;;;;;;;6.90;4.90;;;19.70;99.90;;;;;;5089744;28;21034;-77
2021/08/20 08:00:21;;;;;;;5.00;4.60;;;19.50;99.90;;;;;;5091586;28;20612;-77
2021/08/20 08:02:48;;;;;;;5.50;5.00;;;19.60;99.90;;;;;;5098676;28;20662;-77
2021/08/20 08:05:15;;;;;;;5.90;5.40;;;19.60;99.90;;;;;;5110465;28;21400;-77
2021/08/20 08:07:42;;;;;;;6.63;4.80;;;19.70;99.80;;;;;;5090783;28;20617;-77
2021/08/20 08:10:10;;;;;;;5.70;5.00;;;19.70;99.80;;;;;;5090023;28;21192;-77
2021/08/20 08:12:38;;;;;;;5.73;5.23;;;19.90;99.30;;;;;;5089677;28;21158;-77
2021/08/20 08:15:08;;;;;;;7.20;5.50;;;19.80;99.20;;;;;;5090466;28;21108;-78
2021/08/20 08:17:35;;;;;;;6.10;5.53;;;19.90;99.20;;;;;;5090382;28;20601;-78
2021/08/20 08:20:03;;;;;;;9.07;5.90;;;20.10;98.90;;;;;;5090490;28;20762;-77
2021/08/20 08:22:30;;;;;;;5.17;4.70;;;20.00;98.90;;;;;;5086181;28;20629;-77
2021/08/20 08:24:57;;;;;;;6.93;6.30;;;20.00;99.10;;;;;;5085104;28;20649;-77
2021/08/20 08:27:24;;;;;;;6.40;5.80;;;20.00;98.90;;;;;;5067766;28;20614;-77
2021/08/20 08:29:51;;;;;;;5.97;5.43;;;19.80;99.50;;;;;;5068121;28;20617;-77
2021/08/20 08:32:19;;;;;;;6.47;5.97;;;19.80;99.30;;;;;;5068000;28;20714;-77
2021/08/20 08:34:46;;;;;;;7.93;6.07;;;19.60;99.00;;;;;;5069010;28;20626;-77
2021/08/20 08:37:13;;;;;;;5.37;4.87;;;19.50;99.00;;;;;;5069189;28;20660;-78
2021/08/20 08:39:40;;;;;;;6.77;5.57;;;19.60;99.60;;;;;;5069486;28;20698;-77
2021/08/20 08:42:08;;;;;;;4.90;4.33;;;19.80;99.70;;;;;;5069043;28;20660;-77
2021/08/20 08:44:35;;;;;;;4.57;4.20;;;19.90;97.80;;;;;;5070058;28;21010;-77
2021/08/20 08:47:05;;;;;;;4.50;4.10;;;20.10;97.50;;;;;;5069851;28;20674;-77
2021/08/20 08:49:34;;;;;;;6.43;3.40;;;20.20;97.90;;;;;;5069451;28;20641;-77
2021/08/20 08:52:01;;;;;;;4.50;3.27;;;20.50;97.20;;;;;;5068037;28;21209;-77
2021/08/20 08:54:28;;;;;;;5.10;3.80;;;20.70;96.10;;;;;;5069889;28;20980;-77
2021/08/20 08:56:55;;;;;;;4.83;4.10;;;20.70;94.90;;;;;;5070230;28;20602;-77
2021/08/20 08:59:22;;;;;;;5.17;4.67;;;20.60;95.80;;;;;;5069920;28;20676;-77
2021/08/20 09:01:49;;;;;;;4.57;4.13;;;20.50;96.00;;;;;;5068885;28;20606;-77
2021/08/20 09:04:18;;;;;;;4.20;3.80;;;20.50;96.60;;;;;;5069681;28;21212;-77
2021/08/20 09:06:49;;;;;;;3.67;3.37;;;20.60;94.70;;;;;;5069879;28;20606;-77
2021/08/20 09:09:17;;;;;;;4.23;3.93;;;20.80;95.00;;;;;;5071222;28;20614;-77
2021/08/20 09:11:50;;;;;;;4.80;4.40;;;20.90;94.80;;;;;;5072833;28;21279;-77
2021/08/20 09:14:18;;;;;;;4.10;3.80;;;21.00;94.80;;;;;;5073502;28;20978;-77
2021/08/20 09:16:47;;;;;;;8.70;7.37;;;21.10;94.70;;;;;;5073462;28;20617;-77
2021/08/20 09:19:16;;;;;;;9.10;7.40;;;21.00;96.70;;;;;;5073358;28;20661;-77
2021/08/20 09:21:46;;;;;;;11.20;8.23;;;20.90;97.10;;;;;;5072866;28;20610;-78
2021/08/20 09:24:35;;;;;;;7.97;7.33;;;21.00;97.60;;;;;;5072895;28;20650;-77
2021/08/20 09:27:25;;;;;;;9.20;8.27;;;20.70;97.70;;;;;;5072752;28;20707;-77
2021/08/20 09:30:04;;;;;;;8.67;7.87;;;20.70;98.10;;;;;;5073609;28;20646;-77
2021/08/20 09:32:31;;;;;;;9.77;7.80;;;20.70;97.80;;;;;;5072891;28;20724;-78
2021/08/20 09:34:58;;;;;;;8.83;8.10;;;20.70;98.00;;;;;;5073288;28;20633;-77
2021/08/20 09:37:27;;;;;;;9.03;8.27;;;20.70;98.10;;;;;;5072480;28;20647;-77
2021/08/20 09:40:01;;;;;;;8.17;6.63;;;20.60;98.20;;;;;;5072982;28;20616;-77
2021/08/20 09:42:28;;;;;;;6.97;6.30;;;20.70;96.70;;;;;;5072310;28;20717;-78
2021/08/20 09:45:22;;;;;;;8.53;7.10;;;20.60;96.70;;;;;;5072751;28;20624;-77
2021/08/20 09:47:51;;;;;;;6.10;5.70;;;20.40;96.20;;;;;;5072266;28;20632;-78
2021/08/20 09:50:20;;;;;;;6.43;5.93;;;20.70;97.40;;;;;;5071509;28;21422;-78
2021/08/20 09:52:48;;;;;;;10.43;5.67;;;21.20;97.00;;;;;;5072147;28;20703;-77
2021/08/20 09:55:37;;;;;;;5.17;4.77;;;21.50;95.40;;;;;;5072823;28;20599;-78
2021/08/20 09:58:08;;;;;;;6.50;6.00;;;21.50;94.90;;;;;;5072326;28;20641;-78
2021/08/20 10:00:36;;;;;;;5.80;5.23;;;21.40;94.90;;;;;;5072805;28;20632;-78
2021/08/20 10:03:05;;;;;;;5.90;5.43;;;21.40;96.50;;;;;;5072208;28;20625;-78
2021/08/20 10:05:34;;;;;;;5.50;4.97;;;21.30;96.00;;;;;;5072723;28;20656;-78
2021/08/20 10:08:02;;;;;;;5.60;5.20;;;21.10;95.50;;;;;;5072371;28;20621;-78
2021/08/20 10:10:31;;;;;;;4.10;3.80;;;21.20;95.80;;;;;;5072284;28;20656;-78
2021/08/20 10:12:58;;;;;;;5.33;4.83;;;21.30;93.90;;;;;;5071345;28;20648;-78
2021/08/20 10:15:26;;;;;;;5.77;5.27;;;21.40;93.70;;;;;;5072502;28;20620;-78
2021/08/20 10:17:53;;;;;;;6.10;5.60;;;21.60;94.90;;;;;;5072076;28;20733;-78
2021/08/20 10:20:20;;;;;;;8.50;6.43;;;22.00;94.90;;;;;;5071680;28;20792;-78
2021/08/20 10:22:48;;;;;;;7.57;6.93;;;22.40;94.00;;;;;;5071483;28;21038;-78
2021/08/20 10:25:15;;;;;;;4.93;4.53;;;22.10;92.70;;;;;;5071326;28;20642;-78
2021/08/20 10:27:44;;;;;;;4.40;4.10;;;21.80;92.30;;;;;;5072082;28;20608;-77
2021/08/20 10:30:12;;;;;;;5.93;5.43;;;21.80;92.70;;;;;;5072228;28;20635;-77
2021/08/20 10:32:58;;;;;;;6.47;5.93;;;21.50;93.40;;;;;;5071269;28;20723;-78
2021/08/20 10:35:49;;;;;;;6.13;5.63;;;21.30;94.10;;;;;;5072339;28;20669;-78
2021/08/20 10:38:30;;;;;;;6.40;5.90;;;21.30;94.70;;;;;;5072101;28;20640;-78
2021/08/20 10:41:07;;;;;;;5.73;5.27;;;21.00;95.20;;;;;;5071850;28;20632;-78
2021/08/20 10:44:01;;;;;;;7.00;6.50;;;20.80;95.40;;;;;;5071297;28;20611;-78
2021/08/20 10:46:58;;;;;;;5.87;5.37;;;21.10;96.00;;;;;;5069103;28;20732;-78
2021/08/20 10:49:25;;;;;;;6.23;5.63;;;21.80;95.80;;;;;;5071869;28;20607;-78
2021/08/20 10:52:00;;;;;;;5.80;5.30;;;22.60;95.50;;;;;;5069416;28;20682;-78
2021/08/20 10:55:04;;;;;;;5.27;4.77;;;22.90;93.80;;;;;;5070952;28;20625;-78
2021/08/20 10:58:16;;;;;;;5.03;4.63;;;23.00;90.60;;;;;;5071677;28;20615;-78
2021/08/20 11:00:59;;;;;;;5.43;5.03;;;22.90;91.30;;;;;;5071121;28;20959;-78
2021/08/20 11:03:43;;;;;;;4.83;4.43;;;23.00;91.20;;;;;;5068937;28;20641;-78
2021/08/20 11:06:10;;;;;;;4.67;4.37;;;22.90;89.40;;;;;;5071703;28;20620;-78
2021/08/20 11:08:41;;;;;;;4.40;4.10;;;22.70;90.50;;;;;;5071396;28;20666;-78
2021/08/20 11:11:47;;;;;;;4.77;4.37;;;22.70;91.00;;;;;;5070380;28;20629;-78
2021/08/20 11:14:32;;;;;;;5.13;4.57;;;22.60;90.20;;;;;;5071072;28;20637;-78
2021/08/20 11:17:01;;;;;;;4.93;4.53;;;22.60;91.80;;;;;;5071295;28;20620;-78
2021/08/20 11:20:03;;;;;;;4.90;4.50;;;22.70;91.00;;;;;;5070376;28;20628;-78
2021/08/20 11:22:31;;;;;;;5.47;4.97;;;23.20;91.40;;;;;;5070712;28;21036;-78
2021/08/20 11:25:09;;;;;;;5.60;5.10;;;23.80;89.40;;;;;;5070783;28;20728;-78
2021/08/20 11:27:38;;;;;;;5.27;4.87;;;23.70;87.90;;;;;;5070434;28;20656;-78
2021/08/20 11:30:07;;;;;;;5.60;5.20;;;23.70;90.40;;;;;;5070971;28;20621;-78
2021/08/20 11:32:35;;;;;;;5.73;5.27;;;23.80;90.10;;;;;;5069129;28;21329;-78
2021/08/20 11:35:02;;;;;;;6.13;4.90;;;24.10;89.10;;;;;;5070679;28;20652;-78
2021/08/20 11:37:29;;;;;;;5.33;4.73;;;24.80;87.90;;;;;;5071143;28;20641;-78
2021/08/20 11:40:06;;;;;;;5.83;5.43;;;25.20;82.70;;;;;;5070831;28;20636;-78
2021/08/20 11:42:33;;;;;;;4.97;4.47;;;25.60;80.20;;;;;;5069666;28;20582;-78
2021/08/20 11:45:17;;;;;;;5.80;5.23;;;25.70;80.10;;;;;;5070734;28;20641;-78
2021/08/20 11:47:46;;;;;;;5.43;4.33;;;25.70;80.10;;;;;;5070583;28;20617;-78
2021/08/20 11:50:14;;;;;;;5.27;4.87;;;25.10;80.80;;;;;;5070373;28;20659;-78
2021/08/20 11:52:47;;;;;;;5.50;5.10;;;24.60;79.60;;;;;;5069394;28;21198;-78
2021/08/20 11:55:16;;;;;;;5.90;5.37;;;24.50;78.40;;;;;;5070474;28;20606;-78
2021/08/20 11:57:43;;;;;;;6.13;4.93;;;25.10;81.20;;;;;;5070449;28;20670;-78
2021/08/20 12:00:11;;;;;;;5.27;4.87;;;26.10;79.50;;;;;;5070497;28;20671;-78
2021/08/20 12:02:38;;;;;;;4.47;4.10;;;27.10;77.30;;;;;;5069682;28;20711;-78
2021/08/20 12:05:17;;;;;;;5.90;3.77;;;28.10;74.50;;;;;;5070143;28;20633;-76
2021/08/20 12:07:45;;;;;;;4.23;3.93;;;29.20;70.30;;;;;;5070422;28;20686;-76
2021/08/20 12:10:14;;;;;;;3.47;3.27;;;30.20;68.80;;;;;;5070579;28;20622;-76
2021/08/20 12:12:42;;;;;;;3.50;3.20;;;30.90;61.10;;;;;;5069147;28;21245;-76
2021/08/20 12:15:11;;;;;;;3.73;3.43;;;31.10;59.00;;;;;;5070125;28;21212;-77
2021/08/20 12:17:38;;;;;;;8.10;5.50;;;31.40;59.60;;;;;;5069742;28;21031;-76
2021/08/20 12:20:21;;;;;;;4.27;3.97;;;30.00;58.70;;;;;;5070284;28;20719;-77
2021/08/20 12:22:51;;;;;;;4.20;3.80;;;28.60;63.60;;;;;;5069772;28;20687;-77
2021/08/20 12:25:20;;;;;;;3.60;3.30;;;27.70;64.00;;;;;;5070077;28;20618;-77
2021/08/20 12:27:49;;;;;;;4.30;3.87;;;26.90;70.20;;;;;;5070129;28;20626;-77
2021/08/20 12:30:18;;;;;;;4.17;3.80;;;26.50;67.90;;;;;;5069514;28;21221;-77
2021/08/20 12:32:54;;;;;;;4.47;4.07;;;26.10;71.80;;;;;;5069155;28;20653;-77
2021/08/20 12:35:23;;;;;;;3.90;3.60;;;25.90;73.50;;;;;;5070225;28;20623;-77
2021/08/20 12:38:06;;;;;;;3.63;2.97;;;27.40;69.10;;;;;;5070235;28;20620;-77
2021/08/20 12:40:38;;;;;;;4.10;3.70;;;29.20;64.80;;;;;;5069731;28;20617;-77
2021/08/20 12:43:24;;;;;;;3.77;3.50;;;29.50;58.30;;;;;;5070761;28;20976;-78
2021/08/20 12:46:15;;;;;;;4.17;3.87;;;30.30;58.00;;;;;;5074131;28;20694;-77
2021/08/20 12:48:58;;;;;;;4.43;4.03;;;29.70;58.00;;;;;;5073928;28;20610;-77
2021/08/20 12:51:26;;;;;;;4.70;4.30;;;29.90;59.20;;;;;;5072350;28;20617;-77
2021/08/20 12:54:01;;;;;;;4.13;3.80;;;28.90;60.80;;;;;;5073585;28;20621;-77
2021/08/20 12:56:31;;;;;;;3.83;3.53;;;28.50;60.60;;;;;;5074267;28;20621;-77
2021/08/20 12:59:00;;;;;;;9.87;3.97;;;27.80;60.40;;;;;;5073657;28;21196;-77
2021/08/20 13:01:27;;;;;;;4.53;4.13;;;28.50;61.50;;;;;;5073014;28;20970;-77